sensor_id;sensor_type;location;lat;lon;timestamp;P1;durP1;ratioP1;P2;durP2;ratioP2
35835;SDS011;21955;50.580;7.228;2022-12-05T00:02:18;28.13;;;12.85;;
35835;SDS011;21955;50.580;7.228;2022-12-05T00:04:45;28.52;;;13.23;;
35835;SDS011;21955;50.580;7.228;2022-12-05T00:07:13;28.55;;;13.10;;
35835;SDS011;21955;50.580;7.228;2022-12-05T00:09:40;29.13;;;12.73;;
35835;SDS011;21955;50.580;7.228;2022-12-05T00:12:08;26.80;;;12.60;;
35835;SDS011;21955;50.580;7.228;2022-12-05T00:14:35;27.20;;;12.70;;
35835;SDS011;21955;50.580;7.228;2022-12-05T00:17:02;27.92;;;12.90;;
35835;SDS011;21955;50.580;7.228;2022-12-05T00:19:29;27.70;;;12.85;;
35835;SDS011;21955;50.580;7.228;2022-12-05T00:21:56;24.73;;;12.43;;
35835;SDS011;21955;50.580;7.228;2022-12-05T00:24:25;26.23;;;13.10;;
35835;SDS011;21955;50.580;7.228;2022-12-05T00:26:52;25.60;;;12.35;;
35835;SDS011;21955;50.580;7.228;2022-12-05T00:29:19;25.70;;;12.20;;
35835;SDS011;21955;50.580;7.228;2022-12-05T00:31:46;25.10;;;12.05;;
35835;SDS011;21955;50.580;7.228;2022-12-05T00:34:13;25.88;;;12.52;;
35835;SDS011;21955;50.580;7.228;2022-12-05T00:36:42;22.80;;;11.80;;
35835;SDS011;21955;50.580;7.228;2022-12-05T00:39:10;24.60;;;11.87;;
35835;SDS011;21955;50.580;7.228;2022-12-05T00:41:40;25.30;;;12.50;;
35835;SDS011;21955;50.580;7.228;2022-12-05T00:44:07;24.60;;;12.23;;
35835;SDS011;21955;50.580;7.228;2022-12-05T00:46:35;26.42;;;12.43;;
35835;SDS011;21955;50.580;7.228;2022-12-05T00:49:03;23.17;;;11.75;;
35835;SDS011;21955;50.580;7.228;2022-12-05T00:51:31;23.95;;;12.07;;
35835;SDS011;21955;50.580;7.228;2022-12-05T00:54:00;24.85;;;11.70;;
35835;SDS011;21955;50.580;7.228;2022-12-05T00:56:27;24.92;;;12.05;;
35835;SDS011;21955;50.580;7.228;2022-12-05T00:58:57;23.42;;;11.77;;
35835;SDS011;21955;50.580;7.228;2022-12-05T01:01:26;25.90;;;12.15;;
35835;SDS011;21955;50.580;7.228;2022-12-05T01:03:54;25.02;;;12.10;;
35835;SDS011;21955;50.580;7.228;2022-12-05T01:06:22;26.70;;;11.63;;
35835;SDS011;21955;50.580;7.228;2022-12-05T01:08:49;23.88;;;11.02;;
35835;SDS011;21955;50.580;7.228;2022-12-05T01:11:17;23.87;;;11.97;;
35835;SDS011;21955;50.580;7.228;2022-12-05T01:13:45;26.77;;;11.75;;
35835;SDS011;21955;50.580;7.228;2022-12-05T01:16:14;24.67;;;11.63;;
35835;SDS011;21955;50.580;7.228;2022-12-05T01:18:42;24.63;;;11.20;;
35835;SDS011;21955;50.580;7.228;2022-12-05T01:21:09;23.70;;;11.60;;
35835;SDS011;21955;50.580;7.228;2022-12-05T01:23:36;27.45;;;12.85;;
35835;SDS011;21955;50.580;7.228;2022-12-05T01:26:06;26.60;;;12.00;;
35835;SDS011;21955;50.580;7.228;2022-12-05T01:28:34;26.35;;;12.15;;
35835;SDS011;21955;50.580;7.228;2022-12-05T01:31:03;24.33;;;12.23;;
35835;SDS011;21955;50.580;7.228;2022-12-05T01:33:33;22.43;;;11.10;;
35835;SDS011;21955;50.580;7.228;2022-12-05T01:36:01;24.05;;;11.85;;
35835;SDS011;21955;50.580;7.228;2022-12-05T01:38:28;27.58;;;12.35;;
35835;SDS011;21955;50.580;7.228;2022-12-05T01:41:00;24.35;;;11.77;;
35835;SDS011;21955;50.580;7.228;2022-12-05T01:43:28;27.48;;;12.43;;
35835;SDS011;21955;50.580;7.228;2022-12-05T01:45:55;26.48;;;12.80;;
35835;SDS011;21955;50.580;7.228;2022-12-05T01:48:24;29.37;;;13.37;;
35835;SDS011;21955;50.580;7.228;2022-12-05T01:50:53;30.00;;;13.95;;
35835;SDS011;21955;50.580;7.228;2022-12-05T01:53:20;28.83;;;13.52;;
35835;SDS011;21955;50.580;7.228;2022-12-05T01:55:48;30.58;;;13.75;;
35835;SDS011;21955;50.580;7.228;2022-12-05T01:58:16;25.30;;;12.55;;
35835;SDS011;21955;50.580;7.228;2022-12-05T02:00:44;28.58;;;13.05;;
35835;SDS011;21955;50.580;7.228;2022-12-05T02:03:14;26.17;;;12.98;;
35835;SDS011;21955;50.580;7.228;2022-12-05T02:05:43;26.55;;;12.90;;
35835;SDS011;21955;50.580;7.228;2022-12-05T02:08:13;26.55;;;12.40;;
35835;SDS011;21955;50.580;7.228;2022-12-05T02:10:42;25.63;;;12.73;;
35835;SDS011;21955;50.580;7.228;2022-12-05T02:13:13;26.87;;;13.07;;
35835;SDS011;21955;50.580;7.228;2022-12-05T02:15:42;25.13;;;12.20;;
35835;SDS011;21955;50.580;7.228;2022-12-05T02:18:15;24.45;;;12.18;;
35835;SDS011;21955;50.580;7.228;2022-12-05T02:20:46;27.88;;;13.00;;
35835;SDS011;21955;50.580;7.228;2022-12-05T02:28:51;21.83;;;11.60;;
35835;SDS011;21955;50.580;7.228;2022-12-05T02:31:25;22.75;;;11.70;;
35835;SDS011;21955;50.580;7.228;2022-12-05T02:33:55;22.65;;;11.55;;
35835;SDS011;21955;50.580;7.228;2022-12-05T02:36:28;20.53;;;11.00;;
35835;SDS011;21955;50.580;7.228;2022-12-05T02:38:59;20.50;;;11.10;;
35835;SDS011;21955;50.580;7.228;2022-12-05T02:41:30;20.87;;;11.10;;
35835;SDS011;21955;50.580;7.228;2022-12-05T02:43:59;24.20;;;11.80;;
35835;SDS011;21955;50.580;7.228;2022-12-05T02:46:30;24.02;;;12.32;;
35835;SDS011;21955;50.580;7.228;2022-12-05T02:48:58;23.50;;;11.50;;
35835;SDS011;21955;50.580;7.228;2022-12-05T02:51:28;20.70;;;11.10;;
35835;SDS011;21955;50.580;7.228;2022-12-05T02:53:56;23.03;;;11.83;;
35835;SDS011;21955;50.580;7.228;2022-12-05T02:56:25;21.52;;;11.90;;
35835;SDS011;21955;50.580;7.228;2022-12-05T02:58:54;21.95;;;11.18;;
35835;SDS011;21955;50.580;7.228;2022-12-05T03:01:22;20.45;;;10.85;;
35835;SDS011;21955;50.580;7.228;2022-12-05T03:03:51;20.03;;;10.83;;
35835;SDS011;21955;50.580;7.228;2022-12-05T03:06:19;20.90;;;11.02;;
35835;SDS011;21955;50.580;7.228;2022-12-05T03:08:48;18.55;;;10.10;;
35835;SDS011;21955;50.580;7.228;2022-12-05T03:11:17;18.65;;;10.25;;
35835;SDS011;21955;50.580;7.228;2022-12-05T03:13:46;18.40;;;10.43;;
35835;SDS011;21955;50.580;7.228;2022-12-05T03:16:16;17.35;;;9.73;;
35835;SDS011;21955;50.580;7.228;2022-12-05T03:18:45;18.67;;;10.57;;
35835;SDS011;21955;50.580;7.228;2022-12-05T03:21:17;16.75;;;9.57;;
35835;SDS011;21955;50.580;7.228;2022-12-05T03:23:46;16.77;;;9.05;;
35835;SDS011;21955;50.580;7.228;2022-12-05T03:26:21;16.85;;;9.18;;
35835;SDS011;21955;50.580;7.228;2022-12-05T03:28:53;17.85;;;9.60;;
35835;SDS011;21955;50.580;7.228;2022-12-05T03:31:30;19.25;;;10.40;;
35835;SDS011;21955;50.580;7.228;2022-12-05T03:34:00;21.13;;;10.73;;
35835;SDS011;21955;50.580;7.228;2022-12-05T03:36:37;19.48;;;10.32;;
35835;SDS011;21955;50.580;7.228;2022-12-05T03:39:06;18.98;;;10.07;;
35835;SDS011;21955;50.580;7.228;2022-12-05T03:41:37;19.83;;;10.70;;
35835;SDS011;21955;50.580;7.228;2022-12-05T03:44:07;19.80;;;10.90;;
35835;SDS011;21955;50.580;7.228;2022-12-05T03:46:36;20.80;;;10.95;;
35835;SDS011;21955;50.580;7.228;2022-12-05T03:49:06;23.42;;;12.00;;
35835;SDS011;21955;50.580;7.228;2022-12-05T03:51:39;23.10;;;11.32;;
35835;SDS011;21955;50.580;7.228;2022-12-05T03:54:07;23.27;;;11.45;;
35835;SDS011;21955;50.580;7.228;2022-12-05T03:56:38;23.17;;;11.60;;
35835;SDS011;21955;50.580;7.228;2022-12-05T03:59:10;22.77;;;11.55;;
35835;SDS011;21955;50.580;7.228;2022-12-05T04:01:39;21.48;;;11.20;;
35835;SDS011;21955;50.580;7.228;2022-12-05T04:04:10;22.55;;;10.70;;
35835;SDS011;21955;50.580;7.228;2022-12-05T04:06:41;20.20;;;10.33;;
35835;SDS011;21955;50.580;7.228;2022-12-05T04:09:10;19.47;;;9.80;;
35835;SDS011;21955;50.580;7.228;2022-12-05T04:11:39;17.92;;;9.70;;
35835;SDS011;21955;50.580;7.228;2022-12-05T04:14:09;17.27;;;9.27;;
35835;SDS011;21955;50.580;7.228;2022-12-05T04:16:39;16.20;;;9.00;;
35835;SDS011;21955;50.580;7.228;2022-12-05T04:19:24;14.55;;;8.85;;
35835;SDS011;21955;50.580;7.228;2022-12-05T04:22:15;15.23;;;8.52;;
35835;SDS011;21955;50.580;7.228;2022-12-05T04:24:42;15.80;;;8.90;;
35835;SDS011;21955;50.580;7.228;2022-12-05T04:27:28;17.42;;;9.15;;
35835;SDS011;21955;50.580;7.228;2022-12-05T04:29:59;15.65;;;8.80;;
35835;SDS011;21955;50.580;7.228;2022-12-05T04:32:29;16.10;;;8.55;;
35835;SDS011;21955;50.580;7.228;2022-12-05T04:35:00;14.98;;;8.77;;
35835;SDS011;21955;50.580;7.228;2022-12-05T04:37:30;13.95;;;8.27;;
35835;SDS011;21955;50.580;7.228;2022-12-05T04:40:00;14.20;;;8.60;;
35835;SDS011;21955;50.580;7.228;2022-12-05T04:42:29;15.32;;;8.85;;
35835;SDS011;21955;50.580;7.228;2022-12-05T04:44:57;16.23;;;9.18;;
35835;SDS011;21955;50.580;7.228;2022-12-05T04:47:27;15.93;;;8.65;;
35835;SDS011;21955;50.580;7.228;2022-12-05T04:49:55;13.97;;;8.40;;
35835;SDS011;21955;50.580;7.228;2022-12-05T04:52:24;15.18;;;8.48;;
35835;SDS011;21955;50.580;7.228;2022-12-05T04:54:56;14.77;;;8.40;;
35835;SDS011;21955;50.580;7.228;2022-12-05T04:57:26;14.45;;;8.18;;
35835;SDS011;21955;50.580;7.228;2022-12-05T04:59:55;13.67;;;8.10;;
35835;SDS011;21955;50.580;7.228;2022-12-05T05:02:23;14.32;;;8.05;;
35835;SDS011;21955;50.580;7.228;2022-12-05T05:04:53;14.60;;;7.97;;
35835;SDS011;21955;50.580;7.228;2022-12-05T05:07:21;12.73;;;7.50;;
35835;SDS011;21955;50.580;7.228;2022-12-05T05:09:49;12.13;;;7.20;;
35835;SDS011;21955;50.580;7.228;2022-12-05T05:12:17;12.18;;;7.30;;
35835;SDS011;21955;50.580;7.228;2022-12-05T05:14:44;12.15;;;7.28;;
35835;SDS011;21955;50.580;7.228;2022-12-05T05:17:11;11.80;;;7.20;;
35835;SDS011;21955;50.580;7.228;2022-12-05T05:19:39;12.40;;;7.40;;
35835;SDS011;21955;50.580;7.228;2022-12-05T05:22:07;10.87;;;6.60;;
35835;SDS011;21955;50.580;7.228;2022-12-05T05:24:34;12.55;;;7.30;;
35835;SDS011;21955;50.580;7.228;2022-12-05T05:27:01;12.23;;;7.20;;
35835;SDS011;21955;50.580;7.228;2022-12-05T05:29:30;11.65;;;7.05;;
35835;SDS011;21955;50.580;7.228;2022-12-05T05:31:57;11.13;;;6.97;;
35835;SDS011;21955;50.580;7.228;2022-12-05T05:34:24;12.25;;;7.40;;
35835;SDS011;21955;50.580;7.228;2022-12-05T05:36:52;10.60;;;6.22;;
35835;SDS011;21955;50.580;7.228;2022-12-05T05:39:19;10.07;;;6.53;;
35835;SDS011;21955;50.580;7.228;2022-12-05T05:41:47;10.95;;;6.20;;
35835;SDS011;21955;50.580;7.228;2022-12-05T05:44:14;10.85;;;6.45;;
35835;SDS011;21955;50.580;7.228;2022-12-05T05:46:42;12.20;;;6.82;;
35835;SDS011;21955;50.580;7.228;2022-12-05T05:49:09;11.35;;;6.72;;
35835;SDS011;21955;50.580;7.228;2022-12-05T05:51:37;11.82;;;6.78;;
35835;SDS011;21955;50.580;7.228;2022-12-05T05:54:04;10.25;;;6.28;;
35835;SDS011;21955;50.580;7.228;2022-12-05T05:56:32;9.55;;;6.35;;
35835;SDS011;21955;50.580;7.228;2022-12-05T05:59:00;13.13;;;6.97;;
35835;SDS011;21955;50.580;7.228;2022-12-05T06:01:27;11.07;;;7.05;;
35835;SDS011;21955;50.580;7.228;2022-12-05T06:03:56;12.67;;;7.67;;
35835;SDS011;21955;50.580;7.228;2022-12-05T06:06:24;14.67;;;7.97;;
35835;SDS011;21955;50.580;7.228;2022-12-05T06:08:51;14.60;;;7.80;;
35835;SDS011;21955;50.580;7.228;2022-12-05T06:11:19;13.68;;;7.78;;
35835;SDS011;21955;50.580;7.228;2022-12-05T06:13:47;12.63;;;7.20;;
35835;SDS011;21955;50.580;7.228;2022-12-05T06:16:14;13.70;;;6.72;;
35835;SDS011;21955;50.580;7.228;2022-12-05T06:18:42;11.80;;;6.90;;
35835;SDS011;21955;50.580;7.228;2022-12-05T06:21:11;11.98;;;6.93;;
35835;SDS011;21955;50.580;7.228;2022-12-05T06:23:39;13.32;;;7.20;;
35835;SDS011;21955;50.580;7.228;2022-12-05T06:26:09;12.25;;;7.22;;
35835;SDS011;21955;50.580;7.228;2022-12-05T06:28:39;15.18;;;7.43;;
35835;SDS011;21955;50.580;7.228;2022-12-05T06:31:07;12.02;;;7.22;;
35835;SDS011;21955;50.580;7.228;2022-12-05T06:33:34;11.23;;;7.43;;
35835;SDS011;21955;50.580;7.228;2022-12-05T06:36:03;12.60;;;7.10;;
35835;SDS011;21955;50.580;7.228;2022-12-05T06:38:32;12.50;;;7.25;;
35835;SDS011;21955;50.580;7.228;2022-12-05T06:41:02;13.20;;;7.77;;
35835;SDS011;21955;50.580;7.228;2022-12-05T06:43:30;11.63;;;7.57;;
35835;SDS011;21955;50.580;7.228;2022-12-05T06:45:57;13.77;;;7.70;;
35835;SDS011;21955;50.580;7.228;2022-12-05T06:48:24;13.40;;;8.00;;
35835;SDS011;21955;50.580;7.228;2022-12-05T06:50:52;14.93;;;8.38;;
35835;SDS011;21955;50.580;7.228;2022-12-05T06:53:19;14.47;;;8.10;;
35835;SDS011;21955;50.580;7.228;2022-12-05T06:55:55;15.85;;;9.10;;
35835;SDS011;21955;50.580;7.228;2022-12-05T06:58:22;18.40;;;9.55;;
35835;SDS011;21955;50.580;7.228;2022-12-05T07:00:50;17.77;;;9.57;;
35835;SDS011;21955;50.580;7.228;2022-12-05T07:03:35;16.85;;;9.18;;
35835;SDS011;21955;50.580;7.228;2022-12-05T07:06:03;17.23;;;9.35;;
35835;SDS011;21955;50.580;7.228;2022-12-05T07:08:31;16.85;;;9.35;;
35835;SDS011;21955;50.580;7.228;2022-12-05T07:11:00;20.00;;;10.07;;
35835;SDS011;21955;50.580;7.228;2022-12-05T07:13:28;16.83;;;9.60;;
35835;SDS011;21955;50.580;7.228;2022-12-05T07:15:55;17.55;;;10.07;;
35835;SDS011;21955;50.580;7.228;2022-12-05T07:18:24;19.45;;;9.63;;
35835;SDS011;21955;50.580;7.228;2022-12-05T07:21:06;19.10;;;9.20;;
35835;SDS011;21955;50.580;7.228;2022-12-05T07:23:34;16.70;;;9.32;;
35835;SDS011;21955;50.580;7.228;2022-12-05T07:26:04;17.80;;;9.37;;
35835;SDS011;21955;50.580;7.228;2022-12-05T07:28:34;14.38;;;8.10;;
35835;SDS011;21955;50.580;7.228;2022-12-05T07:31:02;14.00;;;8.30;;
35835;SDS011;21955;50.580;7.228;2022-12-05T07:33:30;15.32;;;8.30;;
35835;SDS011;21955;50.580;7.228;2022-12-05T07:35:57;16.10;;;8.32;;
35835;SDS011;21955;50.580;7.228;2022-12-05T07:38:25;13.07;;;7.77;;
35835;SDS011;21955;50.580;7.228;2022-12-05T07:40:52;11.43;;;6.78;;
35835;SDS011;21955;50.580;7.228;2022-12-05T07:43:24;12.15;;;6.90;;
35835;SDS011;21955;50.580;7.228;2022-12-05T07:45:51;13.65;;;7.32;;
35835;SDS011;21955;50.580;7.228;2022-12-05T07:48:19;13.50;;;7.05;;
35835;SDS011;21955;50.580;7.228;2022-12-05T07:50:50;12.68;;;6.80;;
35835;SDS011;21955;50.580;7.228;2022-12-05T07:53:17;12.05;;;7.07;;
35835;SDS011;21955;50.580;7.228;2022-12-05T07:55:45;16.30;;;9.07;;
35835;SDS011;21955;50.580;7.228;2022-12-05T07:58:12;13.18;;;8.02;;
35835;SDS011;21955;50.580;7.228;2022-12-05T08:00:40;15.40;;;7.47;;
35835;SDS011;21955;50.580;7.228;2022-12-05T08:03:07;13.65;;;8.10;;
35835;SDS011;21955;50.580;7.228;2022-12-05T08:05:35;17.95;;;9.65;;
35835;SDS011;21955;50.580;7.228;2022-12-05T08:08:02;15.43;;;9.32;;
35835;SDS011;21955;50.580;7.228;2022-12-05T08:10:29;14.93;;;8.95;;
35835;SDS011;21955;50.580;7.228;2022-12-05T08:12:57;13.88;;;8.45;;
35835;SDS011;21955;50.580;7.228;2022-12-05T08:15:24;14.07;;;8.10;;
35835;SDS011;21955;50.580;7.228;2022-12-05T08:17:53;12.10;;;7.55;;
35835;SDS011;21955;50.580;7.228;2022-12-05T08:20:20;11.35;;;7.25;;
35835;SDS011;21955;50.580;7.228;2022-12-05T08:22:50;11.82;;;7.20;;
35835;SDS011;21955;50.580;7.228;2022-12-05T08:25:18;21.73;;;11.15;;
35835;SDS011;21955;50.580;7.228;2022-12-05T08:27:45;18.23;;;10.27;;
35835;SDS011;21955;50.580;7.228;2022-12-05T08:30:12;17.83;;;10.10;;
35835;SDS011;21955;50.580;7.228;2022-12-05T08:32:40;20.93;;;11.90;;
35835;SDS011;21955;50.580;7.228;2022-12-05T08:35:09;12.27;;;7.78;;
35835;SDS011;21955;50.580;7.228;2022-12-05T08:37:36;10.80;;;7.10;;
35835;SDS011;21955;50.580;7.228;2022-12-05T08:40:03;10.40;;;6.75;;
35835;SDS011;21955;50.580;7.228;2022-12-05T08:42:31;9.90;;;7.03;;
35835;SDS011;21955;50.580;7.228;2022-12-05T08:44:59;9.60;;;5.82;;
35835;SDS011;21955;50.580;7.228;2022-12-05T08:47:27;8.18;;;5.53;;
35835;SDS011;21955;50.580;7.228;2022-12-05T08:49:54;8.52;;;5.72;;
35835;SDS011;21955;50.580;7.228;2022-12-05T08:52:23;12.15;;;7.82;;
35835;SDS011;21955;50.580;7.228;2022-12-05T08:54:50;18.77;;;11.30;;
35835;SDS011;21955;50.580;7.228;2022-12-05T08:57:20;16.52;;;9.93;;
35835;SDS011;21955;50.580;7.228;2022-12-05T08:59:47;13.90;;;7.90;;
35835;SDS011;21955;50.580;7.228;2022-12-05T09:02:14;18.50;;;9.85;;
35835;SDS011;21955;50.580;7.228;2022-12-05T09:04:41;15.48;;;8.45;;
35835;SDS011;21955;50.580;7.228;2022-12-05T09:07:08;11.88;;;8.18;;
35835;SDS011;21955;50.580;7.228;2022-12-05T09:09:37;11.55;;;7.05;;
35835;SDS011;21955;50.580;7.228;2022-12-05T09:12:04;10.07;;;5.97;;
35835;SDS011;21955;50.580;7.228;2022-12-05T09:14:31;9.75;;;6.25;;
35835;SDS011;21955;50.580;7.228;2022-12-05T09:16:59;15.18;;;7.63;;
35835;SDS011;21955;50.580;7.228;2022-12-05T09:19:26;15.02;;;8.55;;
35835;SDS011;21955;50.580;7.228;2022-12-05T09:21:55;11.98;;;6.88;;
35835;SDS011;21955;50.580;7.228;2022-12-05T09:24:22;8.73;;;5.75;;
35835;SDS011;21955;50.580;7.228;2022-12-05T09:26:51;9.48;;;6.07;;
35835;SDS011;21955;50.580;7.228;2022-12-05T09:29:18;10.40;;;5.95;;
35835;SDS011;21955;50.580;7.228;2022-12-05T09:31:46;8.73;;;5.60;;
35835;SDS011;21955;50.580;7.228;2022-12-05T09:34:15;11.18;;;8.15;;
35835;SDS011;21955;50.580;7.228;2022-12-05T09:36:44;12.63;;;7.85;;
35835;SDS011;21955;50.580;7.228;2022-12-05T09:39:13;11.18;;;6.95;;
35835;SDS011;21955;50.580;7.228;2022-12-05T09:41:46;9.43;;;6.53;;
35835;SDS011;21955;50.580;7.228;2022-12-05T09:44:40;10.73;;;6.55;;
35835;SDS011;21955;50.580;7.228;2022-12-05T09:47:10;10.30;;;7.00;;
35835;SDS011;21955;50.580;7.228;2022-12-05T09:49:43;11.35;;;7.60;;
35835;SDS011;21955;50.580;7.228;2022-12-05T09:52:14;10.10;;;6.57;;
35835;SDS011;21955;50.580;7.228;2022-12-05T09:54:47;11.07;;;6.88;;
35835;SDS011;21955;50.580;7.228;2022-12-05T09:57:16;13.32;;;8.40;;
35835;SDS011;21955;50.580;7.228;2022-12-05T09:59:45;12.43;;;7.72;;
35835;SDS011;21955;50.580;7.228;2022-12-05T10:02:18;12.23;;;7.97;;
35835;SDS011;21955;50.580;7.228;2022-12-05T10:04:50;12.82;;;8.10;;
35835;SDS011;21955;50.580;7.228;2022-12-05T10:07:22;12.80;;;7.60;;
35835;SDS011;21955;50.580;7.228;2022-12-05T10:09:55;11.07;;;7.32;;
35835;SDS011;21955;50.580;7.228;2022-12-05T10:15:16;12.00;;;7.40;;
35835;SDS011;21955;50.580;7.228;2022-12-05T10:17:45;13.23;;;7.53;;
35835;SDS011;21955;50.580;7.228;2022-12-05T10:20:14;15.85;;;9.05;;
35835;SDS011;21955;50.580;7.228;2022-12-05T10:22:42;16.98;;;9.98;;
35835;SDS011;21955;50.580;7.228;2022-12-05T10:25:11;19.65;;;10.95;;
35835;SDS011;21955;50.580;7.228;2022-12-05T10:27:41;22.73;;;11.55;;
35835;SDS011;21955;50.580;7.228;2022-12-05T10:30:12;21.67;;;11.63;;
35835;SDS011;21955;50.580;7.228;2022-12-05T10:32:46;24.02;;;12.85;;
35835;SDS011;21955;50.580;7.228;2022-12-05T10:35:17;23.77;;;13.32;;
35835;SDS011;21955;50.580;7.228;2022-12-05T10:37:45;24.92;;;13.73;;
35835;SDS011;21955;50.580;7.228;2022-12-05T10:40:14;25.08;;;13.38;;
35835;SDS011;21955;50.580;7.228;2022-12-05T10:42:41;24.23;;;13.68;;
35835;SDS011;21955;50.580;7.228;2022-12-05T10:45:12;23.45;;;12.70;;
35835;SDS011;21955;50.580;7.228;2022-12-05T10:47:41;23.85;;;12.95;;
35835;SDS011;21955;50.580;7.228;2022-12-05T10:50:16;21.52;;;12.38;;
35835;SDS011;21955;50.580;7.228;2022-12-05T10:52:46;21.30;;;12.60;;
35835;SDS011;21955;50.580;7.228;2022-12-05T10:55:15;24.15;;;12.90;;
35835;SDS011;21955;50.580;7.228;2022-12-05T10:57:43;21.05;;;12.15;;
35835;SDS011;21955;50.580;7.228;2022-12-05T11:00:15;19.73;;;12.27;;
35835;SDS011;21955;50.580;7.228;2022-12-05T11:02:47;20.23;;;11.65;;
35835;SDS011;21955;50.580;7.228;2022-12-05T11:05:16;19.25;;;11.45;;
35835;SDS011;21955;50.580;7.228;2022-12-05T11:07:52;22.05;;;11.50;;
35835;SDS011;21955;50.580;7.228;2022-12-05T11:10:20;19.77;;;11.65;;
35835;SDS011;21955;50.580;7.228;2022-12-05T11:12:48;21.00;;;11.40;;
35835;SDS011;21955;50.580;7.228;2022-12-05T11:15:19;18.58;;;11.38;;
35835;SDS011;21955;50.580;7.228;2022-12-05T11:17:53;17.27;;;10.43;;
35835;SDS011;21955;50.580;7.228;2022-12-05T11:20:34;18.10;;;11.00;;
35835;SDS011;21955;50.580;7.228;2022-12-05T11:23:14;20.45;;;11.25;;
35835;SDS011;21955;50.580;7.228;2022-12-05T11:25:43;21.97;;;11.90;;
35835;SDS011;21955;50.580;7.228;2022-12-05T11:28:22;22.60;;;12.50;;
35835;SDS011;21955;50.580;7.228;2022-12-05T11:30:54;18.80;;;11.25;;
35835;SDS011;21955;50.580;7.228;2022-12-05T11:33:24;20.38;;;11.43;;
35835;SDS011;21955;50.580;7.228;2022-12-05T11:35:53;34.60;;;18.63;;
35835;SDS011;21955;50.580;7.228;2022-12-05T11:38:21;20.45;;;11.73;;
35835;SDS011;21955;50.580;7.228;2022-12-05T11:40:52;18.10;;;10.02;;
35835;SDS011;21955;50.580;7.228;2022-12-05T11:43:28;17.23;;;10.07;;
35835;SDS011;21955;50.580;7.228;2022-12-05T11:46:01;18.02;;;11.15;;
35835;SDS011;21955;50.580;7.228;2022-12-05T11:48:36;16.67;;;10.60;;
35835;SDS011;21955;50.580;7.228;2022-12-05T11:51:10;15.32;;;10.02;;
35835;SDS011;21955;50.580;7.228;2022-12-05T11:53:59;15.57;;;10.18;;
35835;SDS011;21955;50.580;7.228;2022-12-05T11:56:40;18.70;;;11.23;;
35835;SDS011;21955;50.580;7.228;2022-12-05T11:59:12;19.63;;;11.25;;
35835;SDS011;21955;50.580;7.228;2022-12-05T12:01:47;19.60;;;11.38;;
35835;SDS011;21955;50.580;7.228;2022-12-05T12:04:27;16.00;;;10.55;;
35835;SDS011;21955;50.580;7.228;2022-12-05T12:07:01;14.43;;;9.20;;
35835;SDS011;21955;50.580;7.228;2022-12-05T12:09:38;13.15;;;9.18;;
35835;SDS011;21955;50.580;7.228;2022-12-05T12:12:11;15.13;;;8.90;;
35835;SDS011;21955;50.580;7.228;2022-12-05T12:14:43;19.40;;;11.35;;
35835;SDS011;21955;50.580;7.228;2022-12-05T12:17:14;29.15;;;17.73;;
35835;SDS011;21955;50.580;7.228;2022-12-05T12:19:49;12.48;;;9.05;;
35835;SDS011;21955;50.580;7.228;2022-12-05T12:22:22;13.10;;;8.63;;
35835;SDS011;21955;50.580;7.228;2022-12-05T12:24:54;13.02;;;7.75;;
35835;SDS011;21955;50.580;7.228;2022-12-05T12:27:26;13.18;;;7.95;;
35835;SDS011;21955;50.580;7.228;2022-12-05T12:30:02;12.43;;;8.23;;
35835;SDS011;21955;50.580;7.228;2022-12-05T12:32:33;11.52;;;7.68;;
35835;SDS011;21955;50.580;7.228;2022-12-05T12:37:50;14.13;;;8.55;;
35835;SDS011;21955;50.580;7.228;2022-12-05T12:40:23;13.40;;;9.07;;
35835;SDS011;21955;50.580;7.228;2022-12-05T12:42:55;13.27;;;8.70;;
35835;SDS011;21955;50.580;7.228;2022-12-05T12:45:26;14.73;;;9.70;;
35835;SDS011;21955;50.580;7.228;2022-12-05T12:48:04;16.10;;;10.65;;
35835;SDS011;21955;50.580;7.228;2022-12-05T12:50:34;17.52;;;10.98;;
35835;SDS011;21955;50.580;7.228;2022-12-05T12:53:09;16.10;;;9.68;;
35835;SDS011;21955;50.580;7.228;2022-12-05T12:55:40;15.45;;;9.48;;
35835;SDS011;21955;50.580;7.228;2022-12-05T12:58:11;17.05;;;10.13;;
35835;SDS011;21955;50.580;7.228;2022-12-05T13:00:43;14.75;;;9.30;;
35835;SDS011;21955;50.580;7.228;2022-12-05T13:03:15;14.20;;;9.07;;
35835;SDS011;21955;50.580;7.228;2022-12-05T13:05:44;15.70;;;9.15;;
35835;SDS011;21955;50.580;7.228;2022-12-05T13:08:15;13.65;;;9.02;;
35835;SDS011;21955;50.580;7.228;2022-12-05T13:10:46;17.38;;;9.80;;
35835;SDS011;21955;50.580;7.228;2022-12-05T13:13:15;17.50;;;10.25;;
35835;SDS011;21955;50.580;7.228;2022-12-05T13:15:46;17.55;;;10.38;;
35835;SDS011;21955;50.580;7.228;2022-12-05T13:18:16;16.80;;;10.30;;
35835;SDS011;21955;50.580;7.228;2022-12-05T13:20:49;17.30;;;9.75;;
35835;SDS011;21955;50.580;7.228;2022-12-05T13:23:19;17.02;;;10.20;;
35835;SDS011;21955;50.580;7.228;2022-12-05T13:25:47;19.40;;;10.80;;
35835;SDS011;21955;50.580;7.228;2022-12-05T13:28:25;18.27;;;10.60;;
35835;SDS011;21955;50.580;7.228;2022-12-05T13:30:53;14.50;;;9.30;;
35835;SDS011;21955;50.580;7.228;2022-12-05T13:33:26;16.10;;;9.95;;
35835;SDS011;21955;50.580;7.228;2022-12-05T13:35:55;15.20;;;9.32;;
35835;SDS011;21955;50.580;7.228;2022-12-05T13:38:42;14.15;;;9.15;;
35835;SDS011;21955;50.580;7.228;2022-12-05T13:41:37;14.48;;;9.10;;
35835;SDS011;21955;50.580;7.228;2022-12-05T13:44:27;22.33;;;14.30;;
35835;SDS011;21955;50.580;7.228;2022-12-05T13:46:57;27.30;;;17.00;;
35835;SDS011;21955;50.580;7.228;2022-12-05T13:49:28;16.02;;;10.27;;
35835;SDS011;21955;50.580;7.228;2022-12-05T13:52:02;13.75;;;9.20;;
35835;SDS011;21955;50.580;7.228;2022-12-05T13:54:31;14.13;;;8.87;;
35835;SDS011;21955;50.580;7.228;2022-12-05T13:57:00;16.00;;;9.40;;
35835;SDS011;21955;50.580;7.228;2022-12-05T14:05:36;16.70;;;9.87;;
35835;SDS011;21955;50.580;7.228;2022-12-05T14:11:07;30.38;;;15.52;;
35835;SDS011;21955;50.580;7.228;2022-12-05T14:13:38;27.63;;;14.40;;
35835;SDS011;21955;50.580;7.228;2022-12-05T14:16:36;25.00;;;13.68;;
35835;SDS011;21955;50.580;7.228;2022-12-05T14:19:11;41.63;;;23.63;;
35835;SDS011;21955;50.580;7.228;2022-12-05T14:21:41;25.73;;;14.45;;
35835;SDS011;21955;50.580;7.228;2022-12-05T14:24:11;18.10;;;10.75;;
35835;SDS011;21955;50.580;7.228;2022-12-05T14:26:47;14.37;;;9.13;;
35835;SDS011;21955;50.580;7.228;2022-12-05T14:29:31;22.97;;;12.50;;
35835;SDS011;21955;50.580;7.228;2022-12-05T14:32:03;16.83;;;10.38;;
35835;SDS011;21955;50.580;7.228;2022-12-05T14:34:32;14.45;;;8.65;;
35835;SDS011;21955;50.580;7.228;2022-12-05T14:37:00;47.20;;;24.38;;
35835;SDS011;21955;50.580;7.228;2022-12-05T14:39:32;20.17;;;12.20;;
35835;SDS011;21955;50.580;7.228;2022-12-05T14:42:04;18.13;;;11.00;;
35835;SDS011;21955;50.580;7.228;2022-12-05T14:44:33;16.30;;;10.13;;
35835;SDS011;21955;50.580;7.228;2022-12-05T14:47:00;17.20;;;9.82;;
35835;SDS011;21955;50.580;7.228;2022-12-05T14:49:33;17.30;;;9.75;;
35835;SDS011;21955;50.580;7.228;2022-12-05T14:52:01;19.15;;;10.80;;
35835;SDS011;21955;50.580;7.228;2022-12-05T14:54:34;22.23;;;12.10;;
35835;SDS011;21955;50.580;7.228;2022-12-05T14:57:07;21.83;;;11.57;;
35835;SDS011;21955;50.580;7.228;2022-12-05T14:59:38;20.00;;;11.50;;
35835;SDS011;21955;50.580;7.228;2022-12-05T15:02:13;20.30;;;11.48;;
35835;SDS011;21955;50.580;7.228;2022-12-05T15:04:43;21.13;;;11.13;;
35835;SDS011;21955;50.580;7.228;2022-12-05T15:07:14;20.27;;;11.40;;